Time;durP1;ratioP1;P1;durP2;ratioP2;P2;SDS_P1;SDS_P2;PMS_P1;PMS_P2;Temp;Humidity;BMP_temperature;BMP_pressure;BME280_temperature;BME280_humidity;BME280_pressure;Samples;Min_cycle;Max_cycle;Signal;HPM_P1;HPM_P2
2021/12/10 00:00:49;;;;;;;14.13;10.28;;;;;;;4.59;100.00;99235.19;1671794;85;21006;-73
2021/12/10 00:03:36;;;;;;;14.30;10.70;;;;;;;4.54;100.00;99228.84;1691219;83;21009;-72
2021/12/10 00:06:17;;;;;;;12.80;9.50;;;;;;;4.46;100.00;99235.42;1690917;84;21449;-72
2021/12/10 00:08:47;;;;;;;12.55;10.08;;;;;;;4.40;100.00;99231.67;1690668;84;21568;-73
2021/12/10 00:11:22;;;;;;;11.85;9.25;;;;;;;4.40;100.00;99232.11;1690871;84;21037;-73
2021/12/10 00:13:48;;;;;;;11.25;8.60;;;;;;;4.39;100.00;99227.88;1672531;85;21002;-73
2021/12/10 00:16:16;;;;;;;11.88;9.20;;;;;;;4.36;100.00;99230.06;1690974;84;21005;-73
2021/12/10 00:18:50;;;;;;;11.12;8.55;;;;;;;4.32;100.00;99229.71;1690707;84;21052;-73
2021/12/10 00:21:11;;;;;;;12.07;9.00;;;;;;;4.34;100.00;99238.70;1690857;84;21086;-73
2021/12/10 00:23:38;;;;;;;10.72;8.40;;;;;;;4.35;100.00;99239.95;1690524;85;20958;-72
2021/12/10 00:26:05;;;;;;;11.68;7.85;;;;;;;4.37;100.00;99241.22;1690635;85;21002;-73
2021/12/10 00:28:38;;;;;;;8.60;7.28;;;;;;;4.35;100.00;99250.69;1690810;85;20990;-72
2021/12/10 00:31:45;;;;;;;10.10;8.05;;;;;;;4.36;100.00;99257.54;1672757;85;21069;-73
2021/12/10 00:34:19;;;;;;;11.55;8.63;;;;;;;4.37;100.00;99259.23;1689226;84;21544;-72
2021/12/10 00:36:46;;;;;;;9.80;7.58;;;;;;;4.37;100.00;99263.09;1690602;84;21002;-72
2021/12/10 00:39:23;;;;;;;10.93;8.00;;;;;;;4.33;100.00;99256.31;1690577;84;20990;-73
2021/12/10 00:41:51;;;;;;;10.05;7.47;;;;;;;4.30;100.00;99258.50;1690698;85;20968;-73
2021/12/10 00:44:18;;;;;;;12.28;8.73;;;;;;;4.31;100.00;99247.77;1690671;84;21425;-73
2021/12/10 00:46:45;;;;;;;12.65;8.38;;;;;;;4.32;100.00;99239.16;1696530;84;21496;-71
2021/12/10 00:49:11;;;;;;;12.35;8.93;;;;;;;4.31;100.00;99235.73;1698759;83;21411;-73
2021/12/10 00:51:39;;;;;;;11.43;8.80;;;;;;;4.32;100.00;99245.59;1698838;84;21494;-73
2021/12/10 00:54:06;;;;;;;13.10;10.08;;;;;;;4.29;100.00;99240.06;1683217;84;21012;-73
2021/12/10 00:56:33;;;;;;;12.55;9.23;;;;;;;4.25;100.00;99234.56;1683327;84;21029;-72
2021/12/10 00:58:59;;;;;;;14.25;11.73;;;;;;;4.22;100.00;99224.76;1698876;83;21584;-72
2021/12/10 01:01:29;;;;;;;12.20;10.80;;;;;;;4.14;100.00;99228.79;1683438;84;21049;-72
2021/12/10 01:04:01;;;;;;;13.60;10.28;;;;;;;4.11;100.00;99219.40;1698833;84;21005;-73
2021/12/10 01:06:28;;;;;;;12.73;8.63;;;;;;;4.10;100.00;99225.42;1697607;84;21470;-73
2021/12/10 01:08:59;;;;;;;11.15;8.55;;;;;;;4.10;100.00;99229.28;1698931;84;21426;-73
2021/12/10 01:11:36;;;;;;;12.15;9.35;;;;;;;4.08;100.00;99223.31;1699145;84;21817;-72
2021/12/10 01:14:17;;;;;;;12.23;9.33;;;;;;;4.06;100.00;99221.20;1698804;84;21013;-72
2021/12/10 01:27:34;;;;;;;11.48;9.00;;;;;;;3.88;100.00;99207.84;1747349;81;21017;-72
2021/12/10 01:30:08;;;;;;;12.90;9.13;;;;;;;3.84;100.00;99200.61;1740953;81;20950;-72
2021/12/10 01:32:41;;;;;;;13.83;9.65;;;;;;;3.77;100.00;99193.47;1792015;80;21005;-72
2021/12/10 01:35:10;;;;;;;14.10;10.18;;;;;;;3.76;100.00;99204.63;1773862;81;21532;-72
2021/12/10 01:37:36;;;;;;;14.43;10.32;;;;;;;3.77;100.00;99202.91;1773456;81;21152;-72
2021/12/10 01:40:05;;;;;;;12.07;9.05;;;;;;;3.75;100.00;99194.37;1773679;81;20941;-72
2021/12/10 01:42:42;;;;;;;13.83;11.03;;;;;;;3.74;100.00;99191.38;1773482;81;20985;-72
2021/12/10 01:45:03;;;;;;;12.85;10.18;;;;;;;3.72;100.00;99180.27;1745463;81;21425;-73
2021/12/10 01:47:34;;;;;;;14.60;10.53;;;;;;;3.72;100.00;99177.70;1773603;81;20993;-73
2021/12/10 01:50:01;;;;;;;14.55;11.18;;;;;;;3.75;100.00;99169.50;1765026;81;21103;-73
2021/12/10 01:52:27;;;;;;;13.30;9.93;;;;;;;3.82;100.00;99177.92;1792557;80;21009;-72
2021/12/10 01:54:57;;;;;;;15.85;10.30;;;;;;;3.86;100.00;99180.85;1773512;81;21394;-72
2021/12/10 01:57:28;;;;;;;16.02;12.45;;;;;;;3.92;100.00;99176.03;1773478;81;21009;-72
2021/12/10 01:59:54;;;;;;;13.83;11.50;;;;;;;3.95;100.00;99184.55;1770268;81;20917;-72
2021/12/10 02:02:27;;;;;;;18.15;12.75;;;;;;;3.99;100.00;99178.48;1770282;81;21061;-72
2021/12/10 02:04:54;;;;;;;18.73;12.82;;;;;;;3.96;100.00;99181.54;1769701;81;20960;-72
2021/12/10 02:07:25;;;;;;;16.57;12.40;;;;;;;3.96;100.00;99186.69;1770473;81;20905;-72
2021/12/10 02:09:51;;;;;;;17.70;12.28;;;;;;;4.01;100.00;99178.41;1770524;81;20976;-72
2021/12/10 02:12:20;;;;;;;19.10;13.20;;;;;;;4.02;100.00;99182.25;1769377;81;20993;-72
2021/12/10 02:14:57;;;;;;;21.62;13.88;;;;;;;4.00;100.00;99184.00;1769551;81;21025;-72
2021/12/10 02:17:17;;;;;;;18.62;12.25;;;;;;;4.01;100.00;99180.55;1743481;81;21046;-73
2021/12/10 02:19:43;;;;;;;17.25;11.65;;;;;;;4.04;100.00;99171.48;1750877;82;20985;-73
2021/12/10 02:22:10;;;;;;;15.43;12.28;;;;;;;4.10;100.00;99176.95;1750739;82;20945;-72
2021/12/10 02:24:36;;;;;;;16.45;12.28;;;;;;;4.15;100.00;99168.72;1751815;82;20997;-72
2021/12/10 02:27:07;;;;;;;20.08;12.93;;;;;;;4.17;100.00;99168.25;1751490;82;22085;-72
2021/12/10 02:29:36;;;;;;;19.52;13.50;;;;;;;4.13;100.00;99166.17;1751408;82;20918;-71
2021/12/10 02:32:04;;;;;;;18.23;12.47;;;;;;;4.12;100.00;99166.20;1751562;82;21485;-71
2021/12/10 02:34:30;;;;;;;19.25;13.45;;;;;;;4.09;100.00;99171.41;1751515;82;20974;-71
2021/12/10 02:36:57;;;;;;;19.90;13.95;;;;;;;4.07;100.00;99180.88;1751114;82;20973;-72
2021/12/10 02:39:25;;;;;;;19.17;13.70;;;;;;;4.04;100.00;99186.08;1750786;82;21045;-72
2021/12/10 02:41:51;;;;;;;19.50;12.98;;;;;;;4.03;100.00;99185.67;1751436;82;20922;-72
2021/12/10 02:44:26;;;;;;;19.92;13.70;;;;;;;4.04;100.00;99186.93;1751424;82;20966;-72
2021/12/10 02:46:53;;;;;;;18.82;13.40;;;;;;;4.04;100.00;99186.93;1725783;82;20918;-72
2021/12/10 02:49:20;;;;;;;18.75;14.10;;;;;;;4.08;100.00;99185.99;1751441;82;20978;-72
2021/12/10 02:51:47;;;;;;;17.80;12.95;;;;;;;4.14;100.00;99180.73;1750640;82;21821;-73
2021/12/10 02:54:21;;;;;;;17.30;12.65;;;;;;;4.18;100.00;99178.11;1751385;82;20957;-72
2021/12/10 02:56:44;;;;;;;18.80;12.80;;;;;;;4.19;100.00;99176.79;1751245;82;20966;-72
2021/12/10 02:59:11;;;;;;;17.23;12.47;;;;;;;4.23;100.00;99176.27;1751477;82;20942;-72
2021/12/10 03:01:42;;;;;;;16.17;12.23;;;;;;;4.24;100.00;99167.22;1751481;82;20977;-72
2021/12/10 03:04:08;;;;;;;16.75;12.63;;;;;;;4.24;100.00;99170.23;1751430;82;21125;-72
2021/12/10 03:06:43;;;;;;;16.70;11.97;;;;;;;4.22;100.00;99161.25;1751394;82;21017;-72
2021/12/10 03:09:08;;;;;;;;;;;;;;;4.24;100.00;99161.22;1753992;82;20985;-72
2021/12/10 03:11:37;;;;;;;16.17;11.93;;;;;;;4.26;100.00;99153.88;1751517;81;20162;-72
2021/12/10 03:14:09;;;;;;;17.62;12.78;;;;;;;4.23;100.00;99142.80;1751667;82;20938;-72
2021/12/10 03:16:34;;;;;;;16.30;12.20;;;;;;;4.25;100.00;99139.31;1751611;82;21122;-72
2021/12/10 03:19:01;;;;;;;15.18;11.28;;;;;;;4.28;100.00;99143.11;1754206;81;20949;-72
2021/12/10 03:21:27;;;;;;;15.72;11.65;;;;;;;4.29;100.00;99141.39;1761653;81;21437;-72
2021/12/10 03:23:54;;;;;;;15.95;11.73;;;;;;;4.28;100.00;99144.41;1761565;81;21466;-72
2021/12/10 03:26:21;;;;;;;17.85;12.68;;;;;;;4.26;100.00;99144.02;1756970;81;21076;-72
2021/12/10 03:28:51;;;;;;;16.73;12.25;;;;;;;4.21;100.00;99150.98;1761659;81;20925;-72
2021/12/10 03:31:19;;;;;;;15.53;11.90;;;;;;;4.18;100.00;99141.63;1761793;81;21003;-72
2021/12/10 03:33:45;;;;;;;16.70;11.75;;;;;;;4.16;100.00;99138.23;1731538;81;20995;-72
2021/12/10 03:36:12;;;;;;;15.80;11.80;;;;;;;4.11;100.00;99133.62;1761879;81;20976;-72
2021/12/10 03:38:39;;;;;;;16.12;12.07;;;;;;;4.06;100.00;99131.57;1761687;81;20969;-72
2021/12/10 03:41:06;;;;;;;19.07;13.43;;;;;;;4.00;100.00;99126.54;1761941;81;21155;-72
2021/12/10 03:43:32;;;;;;;17.67;12.60;;;;;;;3.98;100.00;99124.03;1761879;81;21409;-72
2021/12/10 03:46:00;;;;;;;14.40;11.48;;;;;;;3.98;100.00;99125.75;1761620;81;20956;-72
2021/12/10 03:48:31;;;;;;;18.25;12.33;;;;;;;3.98;100.00;99124.03;1756825;81;21029;-72
2021/12/10 03:50:59;;;;;;;15.72;12.00;;;;;;;4.00;100.00;99133.82;1761607;81;21448;-72
2021/12/10 03:53:25;;;;;;;17.67;12.88;;;;;;;4.03;100.00;99127.77;1761930;81;21087;-72
2021/12/10 03:55:55;;;;;;;16.45;11.83;;;;;;;4.00;100.00;99122.68;1756523;81;20922;-72
2021/12/10 03:58:21;;;;;;;17.20;12.70;;;;;;;3.99;100.00;99124.44;1708214;81;20973;-72
2021/12/10 04:00:50;;;;;;;17.45;12.58;;;;;;;3.94;100.00;99126.25;1761673;81;20961;-72
2021/12/10 04:03:20;;;;;;;15.38;12.25;;;;;;;3.94;100.00;99121.54;1756647;81;21036;-73
2021/12/10 04:05:47;;;;;;;17.35;13.45;;;;;;;3.96;100.00;99119.34;1761674;81;21076;-73
2021/12/10 04:08:13;;;;;;;14.50;11.45;;;;;;;3.98;100.00;99116.75;1761757;81;20929;-73
2021/12/10 04:10:40;;;;;;;17.57;11.75;;;;;;;4.00;100.00;99113.23;1731457;81;20972;-74
2021/12/10 04:13:07;;;;;;;17.40;12.07;;;;;;;3.99;100.00;99115.43;1761599;81;21012;-73
2021/12/10 04:15:35;;;;;;;14.73;11.63;;;;;;;4.00;100.00;99113.67;1761603;81;20973;-73
2021/12/10 04:18:03;;;;;;;15.15;12.25;;;;;;;3.94;100.00;99115.95;1755767;81;21868;-72
2021/12/10 04:20:30;;;;;;;13.90;11.03;;;;;;;3.92;100.00;99117.71;1751491;82;21484;-72
2021/12/10 04:22:58;;;;;;;16.62;11.83;;;;;;;3.93;100.00;99120.69;1750896;82;21016;-72
2021/12/10 04:25:24;;;;;;;15.63;11.60;;;;;;;3.96;100.00;99114.64;1751436;82;20957;-72
2021/12/10 04:27:54;;;;;;;14.10;10.90;;;;;;;3.94;100.00;99117.24;1751421;82;20938;-72
2021/12/10 04:30:21;;;;;;;12.65;10.90;;;;;;;3.98;100.00;99124.47;1724371;82;21040;-72
2021/12/10 04:32:48;;;;;;;13.58;10.68;;;;;;;3.99;100.00;99127.02;1751279;82;21118;-72
2021/12/10 04:35:15;;;;;;;12.30;10.38;;;;;;;4.01;100.00;99117.50;1751526;82;20936;-72
2021/12/10 04:37:41;;;;;;;12.13;9.70;;;;;;;4.03;100.00;99114.91;1751477;82;20934;-72
2021/12/10 04:40:11;;;;;;;12.35;10.98;;;;;;;4.03;100.00;99114.91;1751439;82;21016;-72
2021/12/10 04:42:37;;;;;;;15.05;11.90;;;;;;;4.03;100.00;99118.33;1751326;82;21096;-72
2021/12/10 04:45:05;;;;;;;12.18;10.28;;;;;;;4.05;100.00;99112.70;1751554;82;20922;-72
2021/12/10 04:47:34;;;;;;;13.32;10.10;;;;;;;4.09;100.00;99114.78;1751443;82;20950;-72
2021/12/10 04:50:01;;;;;;;14.47;11.63;;;;;;;4.09;100.00;99116.07;1751585;82;20980;-72
2021/12/10 04:52:28;;;;;;;12.33;10.93;;;;;;;4.08;100.00;99110.52;1750616;82;21489;-72
2021/12/10 04:54:54;;;;;;;14.55;10.40;;;;;;;4.09;100.00;99107.91;1749867;82;21000;-72
2021/12/10 04:57:21;;;;;;;14.28;11.53;;;;;;;4.11;100.00;99098.44;1750584;82;20949;-71
2021/12/10 04:59:47;;;;;;;11.53;10.18;;;;;;;4.12;100.00;99100.57;1750485;82;20953;-72
2021/12/10 05:02:16;;;;;;;13.35;11.95;;;;;;;4.10;100.00;99100.59;1751376;82;20945;-72
2021/12/10 05:04:44;;;;;;;15.72;11.33;;;;;;;4.13;100.00;99104.40;1750449;82;21429;-72
2021/12/10 05:07:13;;;;;;;13.13;10.58;;;;;;;4.16;100.00;99091.91;1751508;82;22292;-72
2021/12/10 05:09:39;;;;;;;11.63;10.20;;;;;;;4.20;100.00;99090.12;1750466;82;21145;-72
2021/12/10 05:12:07;;;;;;;14.20;10.38;;;;;;;4.21;100.00;99077.19;1750389;82;21005;-73
2021/12/10 05:14:34;;;;;;;13.88;11.73;;;;;;;4.21;100.00;99091.78;1751422;82;21037;-72
2021/12/10 05:17:05;;;;;;;12.10;10.80;;;;;;;4.19;100.00;99100.86;1751699;82;20913;-72
2021/12/10 05:19:30;;;;;;;12.05;10.45;;;;;;;4.20;100.00;99117.14;1724598;82;21881;-71
2021/12/10 05:21:59;;;;;;;12.88;11.15;;;;;;;4.21;100.00;99114.95;1750517;82;21472;-72
2021/12/10 05:24:27;;;;;;;12.43;10.63;;;;;;;4.21;100.00;99118.81;1750780;81;21025;-72
2021/12/10 05:26:54;;;;;;;13.50;11.55;;;;;;;4.22;100.00;99120.51;1750460;82;21410;-72
2021/12/10 05:29:21;;;;;;;12.45;11.15;;;;;;;4.23;100.00;99123.05;1750923;82;21437;-72
2021/12/10 05:31:48;;;;;;;12.75;11.28;;;;;;;4.26;100.00;99121.70;1750070;80;22111;-72
2021/12/10 05:34:15;;;;;;;13.75;10.90;;;;;;;4.31;100.00;99128.05;1750260;82;20954;-72
2021/12/10 05:36:51;;;;;;;12.28;11.03;;;;;;;4.33;100.00;99128.86;1749857;82;21474;-72
2021/12/10 05:39:21;;;;;;;16.00;12.50;;;;;;;4.34;100.00;99130.13;1750057;82;20993;-72
2021/12/10 05:41:46;;;;;;;14.05;12.53;;;;;;;4.37;100.00;99128.77;1750523;82;21126;-72
2021/12/10 05:44:12;;;;;;;13.13;11.20;;;;;;;4.38;100.00;99111.16;1750520;82;21911;-72
2021/12/10 05:46:39;;;;;;;12.85;11.48;;;;;;;4.39;100.00;99112.00;1750451;82;21017;-74
2021/12/10 05:49:06;;;;;;;13.32;11.93;;;;;;;4.40;100.00;99111.94;1749775;82;21012;-72
2021/12/10 05:51:34;;;;;;;17.67;14.35;;;;;;;4.43;100.00;99115.73;1750523;82;20950;-72
2021/12/10 05:54:00;;;;;;;17.40;13.62;;;;;;;4.46;100.00;99109.67;1750287;82;20922;-72
2021/12/10 05:56:27;;;;;;;11.73;10.45;;;;;;;4.49;100.00;99111.75;1750663;82;21201;-71
2021/12/10 05:58:53;;;;;;;14.63;12.35;;;;;;;4.52;100.00;99108.27;1750576;82;20901;-71
2021/12/10 06:01:22;;;;;;;13.32;11.83;;;;;;;4.53;100.00;99111.24;1750596;82;20937;-71
2021/12/10 06:03:52;;;;;;;12.33;11.03;;;;;;;4.55;100.00;99104.77;1732568;82;20972;-72
2021/12/10 06:06:18;;;;;;;11.97;10.78;;;;;;;4.55;100.00;99100.91;1746863;82;21552;-73
2021/12/10 06:08:45;;;;;;;16.12;12.47;;;;;;;4.57;100.00;99100.44;1692371;83;21148;-73
2021/12/10 06:11:11;;;;;;;15.18;12.37;;;;;;;4.58;100.00;99099.12;1672084;83;21052;-74
2021/12/10 06:13:57;;;;;;;13.50;11.75;;;;;;;4.56;100.00;99094.44;1732299;81;20986;-73
2021/12/10 06:16:29;;;;;;;11.73;10.30;;;;;;;4.56;100.00;99093.16;1721461;81;21080;-75
2021/12/10 06:18:56;;;;;;;12.37;11.18;;;;;;;4.53;100.00;99097.52;1703135;82;21025;-74
2021/12/10 06:21:22;;;;;;;12.82;11.43;;;;;;;4.54;100.00;99091.48;1710657;84;21762;-75
2021/12/10 06:23:48;;;;;;;15.35;12.07;;;;;;;4.56;100.00;99083.29;1710993;84;21146;-73
2021/12/10 06:26:15;;;;;;;13.45;11.68;;;;;;;4.58;100.00;99085.39;1682219;83;21029;-73
2021/12/10 06:28:44;;;;;;;14.83;12.70;;;;;;;4.58;100.00;99080.23;1710987;84;21449;-71
2021/12/10 06:31:13;;;;;;;13.85;12.00;;;;;;;4.59;100.00;99076.34;1711339;83;21429;-75
2021/12/10 06:33:40;;;;;;;13.60;11.40;;;;;;;4.62;100.00;99072.38;1710948;82;21140;-75
2021/12/10 06:36:07;;;;;;;14.95;11.95;;;;;;;4.64;100.00;99071.06;1709513;82;21005;-74
2021/12/10 06:38:34;;;;;;;12.73;10.90;;;;;;;4.69;100.00;99079.09;1710647;84;20973;-74
2021/12/10 06:41:02;;;;;;;12.35;11.08;;;;;;;4.75;100.00;99070.38;1710274;82;21010;-74
2021/12/10 06:43:30;;;;;;;12.23;10.93;;;;;;;4.78;100.00;99069.86;1710963;84;21131;-74
2021/12/10 06:46:00;;;;;;;17.52;13.53;;;;;;;4.79;100.00;99070.27;1711299;83;22169;-75
2021/12/10 06:48:29;;;;;;;13.93;11.80;;;;;;;4.80;100.00;99060.34;1710942;84;21092;-75
2021/12/10 06:51:09;;;;;;;11.73;10.32;;;;;;;4.84;100.00;99059.38;1711042;83;21450;-75
2021/12/10 06:53:39;;;;;;;14.98;12.85;;;;;;;4.88;100.00;99071.75;1715143;82;21041;-75
2021/12/10 06:56:16;;;;;;;13.32;11.43;;;;;;;4.90;100.00;99067.41;1736894;82;21017;-75
2021/12/10 06:58:43;;;;;;;11.90;10.60;;;;;;;4.90;100.00;99057.55;1721593;82;22149;-74
2021/12/10 07:01:16;;;;;;;11.15;10.03;;;;;;;4.89;100.00;99063.58;1696202;84;21060;-75
2021/12/10 07:03:46;;;;;;;20.77;14.75;;;;;;;4.89;100.00;99060.56;1693657;82;21036;-74
2021/12/10 07:06:13;;;;;;;12.10;10.82;;;;;;;4.88;100.00;99064.02;1685310;82;20973;-73
2021/12/10 07:08:40;;;;;;;12.98;11.05;;;;;;;4.90;100.00;99069.14;1726962;82;21099;-75
2021/12/10 07:11:09;;;;;;;12.55;11.15;;;;;;;4.93;100.00;99067.34;1710252;82;21813;-76
2021/12/10 07:13:45;;;;;;;13.03;11.65;;;;;;;4.96;100.00;99063.84;1691543;82;21029;-75
2021/12/10 07:16:11;;;;;;;11.80;9.95;;;;;;;4.96;100.00;99064.69;1733109;82;20989;-77
2021/12/10 07:18:38;;;;;;;12.13;10.60;;;;;;;4.96;100.00;99069.84;1688938;84;21022;-76
2021/12/10 07:21:05;;;;;;;12.43;11.12;;;;;;;4.97;100.00;99057.37;1703988;84;20946;-74
2021/12/10 07:23:32;;;;;;;13.18;10.95;;;;;;;4.99;100.00;99075.38;1719778;81;21561;-75
2021/12/10 07:25:58;;;;;;;11.12;9.93;;;;;;;5.02;100.00;99072.25;1710976;82;21438;-74
2021/12/10 07:28:25;;;;;;;12.85;11.20;;;;;;;5.03;100.00;99064.07;1729183;82;20994;-74
2021/12/10 07:30:51;;;;;;;13.53;10.78;;;;;;;5.02;100.00;99063.22;1734242;82;20969;-74
2021/12/10 07:33:18;;;;;;;12.78;11.57;;;;;;;5.04;100.00;99064.48;1734992;82;21057;-75
2021/12/10 07:35:46;;;;;;;12.58;11.28;;;;;;;5.04;100.00;99045.14;1734815;82;21108;-74
2021/12/10 07:38:15;;;;;;;16.15;14.00;;;;;;;5.05;100.00;99039.11;1732954;82;20946;-74
2021/12/10 07:40:42;;;;;;;13.35;11.95;;;;;;;5.11;100.00;99050.56;1702867;82;21037;-76
2021/12/10 07:43:08;;;;;;;15.00;13.40;;;;;;;5.11;100.00;99049.27;1725660;82;21690;-74
2021/12/10 07:45:35;;;;;;;14.63;12.98;;;;;;;5.11;100.00;99044.96;1689249;81;21059;-74
2021/12/10 07:48:07;;;;;;;15.30;11.20;;;;;;;5.11;100.00;99038.52;1736586;81;21499;-74
2021/12/10 07:50:37;;;;;;;20.10;14.70;;;;;;;5.13;100.00;99043.19;1743057;81;20967;-74
2021/12/10 07:53:20;;;;;;;14.05;11.68;;;;;;;5.13;100.00;99038.48;1734606;81;21018;-74
2021/12/10 07:55:58;;;;;;;15.50;11.75;;;;;;;5.13;100.00;99029.02;1736098;81;20929;-75
2021/12/10 07:58:25;;;;;;;13.53;11.75;;;;;;;5.16;100.00;99015.20;1739106;81;21077;-75
2021/12/10 08:00:52;;;;;;;11.80;10.60;;;;;;;5.17;100.00;99019.47;1703307;81;21086;-75
2021/12/10 08:03:18;;;;;;;13.95;11.43;;;;;;;5.19;100.00;99019.84;1695883;84;21089;-75
2021/12/10 08:05:46;;;;;;;12.88;10.43;;;;;;;5.22;100.00;99011.59;1751802;81;20928;-75
2021/12/10 08:08:12;;;;;;;10.68;9.55;;;;;;;5.23;100.00;99010.70;1735263;82;21465;-76
2021/12/10 08:10:40;;;;;;;9.78;8.78;;;;;;;5.24;100.00;99015.82;1712452;82;21069;-75
2021/12/10 08:13:07;;;;;;;10.75;9.65;;;;;;;5.27;100.00;99009.30;1705580;84;21193;-76
2021/12/10 08:15:33;;;;;;;11.03;9.93;;;;;;;5.32;100.00;99007.89;1698121;84;20967;-74
2021/12/10 08:18:01;;;;;;;14.58;10.55;;;;;;;5.33;100.00;99001.40;1714254;81;21088;-75
2021/12/10 08:20:27;;;;;;;11.38;10.20;;;;;;;5.36;100.00;99003.90;1732746;82;21010;-74
2021/12/10 08:22:54;;;;;;;10.70;9.60;;;;;;;5.42;100.00;99002.41;1702894;82;20962;-74
2021/12/10 08:25:22;;;;;;;11.35;10.30;;;;;;;5.49;100.00;98997.94;1734040;82;22128;-74
2021/12/10 08:27:49;;;;;;;12.37;11.05;;;;;;;5.54;100.00;99003.82;1703207;82;21038;-74
2021/12/10 08:30:18;;;;;;;12.63;10.58;;;;;;;5.55;100.00;99000.36;1702676;82;21021;-74
2021/12/10 08:32:45;;;;;;;10.48;9.48;;;;;;;5.59;100.00;98995.52;1735083;82;21010;-74
2021/12/10 08:35:19;;;;;;;11.45;10.25;;;;;;;5.62;100.00;98988.95;1730468;82;21066;-74
2021/12/10 08:37:46;;;;;;;15.98;12.10;;;;;;;5.61;100.00;98984.67;1720666;82;21154;-75
2021/12/10 08:40:16;;;;;;;12.50;11.20;;;;;;;5.62;100.00;98990.23;1734835;82;21005;-75
2021/12/10 08:42:43;;;;;;;12.07;10.88;;;;;;;5.63;100.00;98987.21;1735077;82;20958;-75
2021/12/10 08:45:10;;;;;;;21.85;16.82;;;;;;;5.65;100.00;98988.02;1702599;82;21502;-76
2021/12/10 08:47:36;;;;;;;16.45;12.43;;;;;;;5.68;100.00;98977.17;1735159;82;21104;-75
2021/12/10 08:50:16;;;;;;;13.68;11.93;;;;;;;5.70;100.00;98976.69;1702833;82;21125;-76
2021/12/10 08:52:51;;;;;;;15.48;12.73;;;;;;;5.74;100.00;98979.58;1693951;82;21035;-75
2021/12/10 08:55:18;;;;;;;14.87;12.40;;;;;;;5.79;100.00;98978.16;1734918;82;20997;-75
2021/12/10 08:57:47;;;;;;;15.23;13.60;;;;;;;5.86;100.00;98978.35;1734131;82;47476;-74
2021/12/10 09:00:14;;;;;;;13.03;11.65;;;;;;;5.93;100.00;98970.02;1733165;82;21088;-74
2021/12/10 09:02:41;;;;;;;13.22;11.60;;;;;;;6.00;100.00;98966.34;1702184;82;21520;-75
2021/12/10 09:05:24;;;;;;;15.53;12.28;;;;;;;6.05;100.00;98964.02;1692372;84;21524;-74
2021/12/10 09:07:58;;;;;;;12.85;11.48;;;;;;;6.11;100.00;98948.34;1707234;82;21532;-75
2021/12/10 09:10:30;;;;;;;12.68;11.18;;;;;;;6.19;100.00;98942.95;1686616;84;21423;-75
2021/12/10 09:12:56;;;;;;;12.80;11.38;;;;;;;6.23;100.00;98936.32;1720278;82;21525;-75
2021/12/10 09:15:25;;;;;;;12.80;10.53;;;;;;;6.30;100.00;98947.75;1703553;82;22078;-75
2021/12/10 09:17:53;;;;;;;10.63;9.53;;;;;;;6.34;100.00;98943.73;1728739;82;20985;-74
2021/12/10 09:20:35;;;;;;;11.25;9.75;;;;;;;6.39;100.00;98937.98;1705267;82;21092;-75
2021/12/10 09:23:01;;;;;;;11.03;9.93;;;;;;;6.45;100.00;98932.59;1705512;84;21006;-74
2021/12/10 09:25:42;;;;;;;12.03;10.80;;;;;;;6.49;100.00;98912.23;1705540;82;21065;-75
2021/12/10 09:28:09;;;;;;;12.68;9.08;;;;;;;6.54;100.00;98918.09;1675340;84;21048;-75
2021/12/10 09:30:38;;;;;;;10.98;9.83;;;;;;;6.59;100.00;98915.36;1719113;82;21529;-75
2021/12/10 09:33:05;;;;;;;12.65;11.40;;;;;;;6.65;100.00;98914.28;1708175;82;20978;-74
2021/12/10 09:35:33;;;;;;;14.03;11.65;;;;;;;6.69;100.00;98920.59;1712766;82;20986;-74
2021/12/10 09:38:02;;;;;;;11.60;9.55;;;;;;;6.73;100.00;98919.59;1729785;82;21478;-75
2021/12/10 09:40:42;;;;;;;11.80;9.58;;;;;;;6.76;100.00;98913.03;1702989;82;21083;-75
2021/12/10 09:43:11;;;;;;;11.05;9.23;;;;;;;6.77;100.00;98898.36;1731770;82;21074;-75
2021/12/10 09:45:40;;;;;;;13.70;9.53;;;;;;;6.79;100.00;98886.23;1733296;82;21025;-75
2021/12/10 09:48:08;;;;;;;12.53;9.90;;;;;;;6.85;100.00;98889.42;1733280;82;21034;-75
2021/12/10 09:50:40;;;;;;;11.15;9.95;;;;;;;6.95;100.00;98887.37;1733241;82;20974;-76
2021/12/10 09:53:07;;;;;;;8.88;8.05;;;;;;;7.02;100.00;98884.94;1730474;81;21151;-74
2021/12/10 09:55:34;;;;;;;9.48;7.70;;;;;;;7.08;100.00;98878.25;1732210;82;21029;-71
2021/12/10 09:58:01;;;;;;;9.03;8.13;;;;;;;7.12;100.00;98890.63;1731731;82;21199;-70
2021/12/10 10:00:38;;;;;;;11.22;9.88;;;;;;;7.13;100.00;98880.23;1733727;82;21080;-72
2021/12/10 10:03:11;;;;;;;12.90;10.05;;;;;;;7.15;100.00;98872.42;1733164;81;21623;-73
2021/12/10 10:05:40;;;;;;;9.88;8.65;;;;;;;7.21;100.00;98870.88;1702945;82;21811;-73
2021/12/10 10:08:20;;;;;;;8.18;7.33;;;;;;;7.29;100.00;98844.28;1733867;82;21049;-72
2021/12/10 10:10:50;;;;;;;8.65;7.75;;;;;;;7.35;100.00;98844.06;1698964;82;21064;-70
2021/12/10 10:13:27;;;;;;;8.95;8.05;;;;;;;7.42;100.00;98838.17;1734994;82;21062;-71
2021/12/10 10:16:04;;;;;;;8.88;7.97;;;;;;;7.46;100.00;98839.30;1733682;82;21402;-71
2021/12/10 10:18:33;;;;;;;9.55;7.50;;;;;;;7.49;100.00;98848.69;1734767;82;21142;-71
2021/12/10 10:21:04;;;;;;;9.53;8.25;;;;;;;7.49;100.00;98842.22;1731943;82;20951;-72
2021/12/10 10:23:31;;;;;;;10.70;8.13;;;;;;;7.48;100.00;98847.84;1728352;81;20962;-71
2021/12/10 10:26:00;;;;;;;8.55;7.65;;;;;;;7.50;100.00;98837.44;1729442;82;21158;-71
2021/12/10 10:28:26;;;;;;;10.70;7.90;;;;;;;7.49;100.00;98826.25;1729386;82;21064;-71
2021/12/10 10:31:02;;;;;;;9.55;8.53;;;;;;;7.50;100.00;98832.27;1729366;83;21147;-71
2021/12/10 10:33:31;;;;;;;10.43;9.28;;;;;;;7.51;100.00;98853.36;1729422;83;21400;-71
2021/12/10 10:36:02;;;;;;;9.70;8.65;;;;;;;7.52;100.00;98848.13;1729178;83;21057;-71
2021/12/10 10:38:29;;;;;;;9.20;7.90;;;;;;;7.52;100.00;98836.48;1702572;83;21010;-71
2021/12/10 10:41:00;;;;;;;11.45;9.43;;;;;;;7.52;100.00;98831.31;1702404;83;20989;-70
2021/12/10 10:43:27;;;;;;;10.15;9.13;;;;;;;7.52;100.00;98825.29;1703096;83;21057;-71
2021/12/10 10:45:54;;;;;;;11.85;10.08;;;;;;;7.48;100.00;98827.15;1729647;83;20962;-71
2021/12/10 10:48:21;;;;;;;12.00;9.93;;;;;;;7.47;100.00;98824.17;1729712;83;21001;-72
2021/12/10 10:51:05;;;;;;;11.25;8.93;;;;;;;7.47;100.00;98823.33;1729629;83;21009;-71
2021/12/10 10:53:35;;;;;;;17.92;12.80;;;;;;;7.47;100.00;98818.16;1702741;83;20946;-71
2021/12/10 10:56:07;;;;;;;13.88;11.68;;;;;;;7.46;100.00;98820.34;1729584;83;21872;-71
2021/12/10 10:58:44;;;;;;;17.20;11.15;;;;;;;7.47;100.00;98824.17;1702466;83;21001;-70
2021/12/10 11:01:28;;;;;;;12.63;10.30;;;;;;;7.49;100.00;98809.88;1702546;83;20994;-71
2021/12/10 11:04:01;;;;;;;18.60;15.15;;;;;;;7.52;100.00;98818.38;1721124;82;21002;-71
2021/12/10 11:06:38;;;;;;;17.75;12.35;;;;;;;7.52;100.00;98814.48;1710227;82;21009;-72
2021/12/10 11:09:21;;;;;;;14.23;11.93;;;;;;;7.56;100.00;98809.59;1688511;84;21010;-70
2021/12/10 11:11:54;;;;;;;14.38;11.50;;;;;;;7.59;100.00;98808.14;1714812;83;21501;-72
2021/12/10 11:14:56;;;;;;;14.40;10.88;;;;;;;7.64;100.00;98809.27;1722938;83;21434;-71
2021/12/10 11:17:44;;;;;;;15.88;12.28;;;;;;;7.69;100.00;98806.50;1717127;81;21018;-71
2021/12/10 11:20:25;;;;;;;14.95;11.90;;;;;;;7.72;100.00;98794.73;1716306;82;21052;-71
2021/12/10 11:23:03;;;;;;;14.45;10.78;;;;;;;7.71;100.00;98806.83;1702791;81;21086;-72
2021/12/10 11:25:41;;;;;;;15.00;10.98;;;;;;;7.74;100.00;98801.98;1719776;82;21053;-73
2021/12/10 11:28:15;;;;;;;11.60;9.60;;;;;;;7.80;100.00;98810.77;1732480;82;21615;-72
2021/12/10 11:30:48;;;;;;;14.35;11.90;;;;;;;7.83;100.00;98795.97;1719491;81;21046;-71
2021/12/10 11:33:19;;;;;;;15.78;11.78;;;;;;;7.87;100.00;98805.75;1729654;82;26976;-71
2021/12/10 11:35:53;;;;;;;14.30;10.43;;;;;;;7.91;100.00;98795.66;1731254;81;21238;-71
2021/12/10 11:38:28;;;;;;;12.45;9.55;;;;;;;7.96;100.00;98793.73;1734664;82;21074;-72
2021/12/10 11:41:15;;;;;;;14.33;10.75;;;;;;;8.00;100.00;98783.61;1732482;82;21002;-72